LFPO 200630Z 26003KT CAVOK 12/10 Q1025 NOSIG

ElémentsDécodage
LFPO Station météo située sur l'aérodrome de PARIS Orly
200630Z émis le 20 du mois à 06h30 UTC
26003KT vent du 260°, 03 noeuds
CAVOK Ceiling And Visibility OK
- Visibilité de 10 Km ou plus
- Pas de nuage au-dessous de 1500m ou au-dessous de l'altitude minimale du secteur la plus élevée (si>1500m) et absence de CB
- pas de temps présent significatif
12/10 température 12°C, point de rosée 10°C
 soit une humidité relative de 88%
Q1025 la pression au niveau de la mer (QNH) est de 1025 hPa
NOSIG Pas de changement significatif prévu au cours des deux heures suivant l'heure de l'observation